Time;durP1;ratioP1;P1;durP2;ratioP2;P2;SDS_P1;SDS_P2;PMS_P1;PMS_P2;Temp;Humidity;BMP_temperature;BMP_pressure;BME280_temperature;BME280_humidity;BME280_pressure;Samples;Min_cycle;Max_cycle;Signal;HPM_P1;HPM_P2
2024/01/21 00:02:13;;;;;;;;;;;;;;;1.45;100.00;100035.25;5092949;28;19960;-80
2024/01/21 00:04:39;;;;;;;;;;;;;;;1.38;100.00;100035.84;5079272;28;19914;-80
2024/01/21 00:07:04;;;;;;;;;;;;;;;1.29;100.00;100048.00;5092695;28;19994;-80
2024/01/21 00:09:30;;;;;;;;;;;;;;;1.34;100.00;100045.03;5091318;28;19908;-80
2024/01/21 00:11:55;;;;;;;;;;;;;;;1.42;100.00;100050.38;5091113;28;19919;-79
2024/01/21 00:14:20;;;;;;;;;;;;;;;1.35;100.00;100044.69;5088189;28;19912;-80
2024/01/21 00:16:46;;;;;;;;;;;;;;;1.40;100.00;100047.19;5082480;28;19958;-80
2024/01/21 00:19:11;;;;;;;;;;;;;;;1.42;100.00;100049.56;5091367;28;19965;-80
2024/01/21 00:21:36;;;;;;;;;;;;;;;1.43;100.00;100054.69;5091169;28;20487;-80
2024/01/21 00:24:01;;;;;;;;;;;;;;;1.46;100.00;100053.19;5090503;28;19916;-80
2024/01/21 00:26:27;;;;;;;;;;;;;;;1.45;100.00;100055.13;5092283;28;19924;-80
2024/01/21 00:28:52;;;;;;;;;;;;;;;1.47;100.00;100055.56;5090885;28;19923;-80
2024/01/21 00:31:17;;;;;;;;;;;;;;;1.45;100.00;100057.03;5091385;28;19923;-82
2024/01/21 00:33:43;;;;;;;;;;;;;;;1.48;100.00;100065.34;5091535;28;20279;-80
2024/01/21 00:36:10;;;;;;;;;;;;;;;1.57;100.00;100068.72;5092467;28;20311;-80
2024/01/21 00:38:38;;;;;;;;;;;;;;;1.63;100.00;100066.53;5090841;28;19919;-80
2024/01/21 00:41:03;;;;;;;;;;;;;;;1.69;100.00;100067.91;5091189;28;19955;-81
2024/01/21 00:43:29;;;;;;;;;;;;;;;1.70;100.00;100074.94;5087735;28;19922;-81
2024/01/21 00:45:54;;;;;;;;;;;;;;;1.70;100.00;100077.66;5080835;28;19922;-81
2024/01/21 00:48:19;;;;;;;;;;;;;;;1.73;100.00;100078.91;5090952;28;19919;-81
2024/01/21 00:50:45;;;;;;;;;;;;;;;1.72;100.00;100082.78;5091031;28;19912;-80
2024/01/21 00:53:10;;;;;;;;;;;;;;;1.69;100.00;100078.03;5090467;28;20523;-80
2024/01/21 00:55:35;;;;;;;;;;;;;;;1.70;100.00;100074.94;5090582;28;19928;-81
2024/01/21 00:58:00;;;;;;;;;;;;;;;1.68;100.00;100079.16;5090255;28;19924;-79
2024/01/21 01:00:27;;;;;;;;;;;;;;;1.68;100.00;100077.22;5090725;28;19912;-79
2024/01/21 01:02:52;;;;;;;;;;;;;;;1.71;100.00;100075.72;5090825;28;19912;-79
2024/01/21 01:05:18;;;;;;;;;;;;;;;1.74;100.00;100080.50;5090603;28;19915;-79
2024/01/21 01:07:43;;;;;;;;;;;;;;;1.70;100.00;100079.59;5092215;28;19968;-81
2024/01/21 01:10:09;;;;;;;;;;;;;;;1.66;100.00;100076.78;5095373;28;19916;-80
2024/01/21 01:12:34;;;;;;;;;;;;;;;1.67;100.00;100069.41;5096835;28;20335;-79
2024/01/21 01:14:59;;;;;;;;;;;;;;;1.63;100.00;100070.06;5090552;28;19916;-79
2024/01/21 01:17:25;;;;;;;;;;;;;;;1.53;100.00;100073.28;5090209;28;19956;-80
2024/01/21 01:19:50;;;;;;;;;;;;;;;1.44;100.00;100071.81;5090364;28;19965;-82
2024/01/21 01:22:15;;;;;;;;;;;;;;;1.47;100.00;100069.19;5090725;28;20359;-80
2024/01/21 01:24:41;;;;;;;;;;;;;;;1.46;100.00;100075.78;5091825;28;20379;-80
2024/01/21 01:27:07;;;;;;;;;;;;;;;1.47;100.00;100071.91;5090249;28;19916;-80
2024/01/21 01:29:32;;;;;;;;;;;;;;;1.46;100.00;100070.31;5090656;28;19954;-80
2024/01/21 01:31:57;;;;;;;;;;;;;;;1.42;100.00;100068.63;5090599;28;19916;-80
2024/01/21 01:34:22;;;;;;;;;;;;;;;1.44;100.00;100069.88;5090458;28;19934;-80
2024/01/21 01:36:48;;;;;;;;;;;;;;;1.46;100.00;100070.31;5093336;28;19912;-80
2024/01/21 01:39:13;;;;;;;;;;;;;;;1.46;100.00;100064.88;5094206;28;19920;-80
2024/01/21 01:41:38;;;;;;;;;;;;;;;1.42;100.00;100068.63;5081613;28;19995;-79
2024/01/21 01:44:04;;;;;;;;;;;;;;;1.42;100.00;100069.44;5095728;28;19912;-81
2024/01/21 01:46:29;;;;;;;;;;;;;;;1.40;100.00;100060.78;5094419;28;20295;-80
2024/01/21 01:48:54;;;;;;;;;;;;;;;1.38;100.00;100068.53;5094120;28;20288;-80
2024/01/21 01:51:20;;;;;;;;;;;;;;;1.32;100.00;100075.34;5093787;28;20347;-79
2024/01/21 01:53:45;;;;;;;;;;;;;;;1.20;100.00;100083.50;5093859;28;20360;-79
2024/01/21 01:56:11;;;;;;;;;;;;;;;1.19;100.00;100076.47;5093668;28;20375;-80
2024/01/21 01:58:37;;;;;;;;;;;;;;;1.17;100.00;100081.44;5093889;28;19995;-80
2024/01/21 02:01:03;;;;;;;;;;;;;;;1.21;100.00;100087.78;5093665;28;19911;-82
2024/01/21 02:03:28;;;;;;;;;;;;;;;1.11;100.00;100088.25;5093882;28;19923;-80
2024/01/21 02:05:53;;;;;;;;;;;;;;;1.07;100.00;100087.34;5080193;28;19923;-81
2024/01/21 02:08:19;;;;;;;;;;;;;;;1.11;100.00;100080.09;5094116;28;19920;-80
2024/01/21 02:10:44;;;;;;;;;;;;;;;1.10;100.00;100082.00;5093053;28;19916;-79
2024/01/21 02:13:09;;;;;;;;;;;;;;;1.07;100.00;100077.25;5093540;28;19991;-80
2024/01/21 02:15:35;;;;;;;;;;;;;;;1.07;100.00;100079.19;5093394;28;19912;-79
2024/01/21 02:18:00;;;;;;;;;;;;;;;1.07;100.00;100079.19;5093368;28;19912;-80
2024/01/21 02:20:25;;;;;;;;;;;;;;;1.03;100.00;100073.63;5093440;28;19912;-80
2024/01/21 02:22:51;;;;;;;;;;;;;;;0.97;100.00;100074.16;5094255;28;19937;-79
2024/01/21 02:25:16;;;;;;;;;;;;;;;1.00;100.00;100073.50;5080774;28;19908;-82
2024/01/21 02:27:41;;;;;;;;;;;;;;;1.02;100.00;100071.25;5093319;28;19908;-80
2024/01/21 02:30:07;;;;;;;;;;;;;;;0.99;100.00;100074.63;5093112;28;19912;-79
2024/01/21 02:32:32;;;;;;;;;;;;;;;0.98;100.00;100068.41;5093012;28;20398;-81
2024/01/21 02:34:57;;;;;;;;;;;;;;;0.99;100.00;100063.75;5093347;28;19920;-80
2024/01/21 02:37:23;;;;;;;;;;;;;;;1.00;100.00;100074.31;5093364;28;19916;-80
2024/01/21 02:39:48;;;;;;;;;;;;;;;1.00;100.00;100076.22;5093844;28;19912;-80
2024/01/21 02:42:13;;;;;;;;;;;;;;;0.93;100.00;100073.28;5094202;28;19916;-80
2024/01/21 02:44:39;;;;;;;;;;;;;;;0.78;100.00;100070.06;5092932;28;20378;-80
2024/01/21 02:47:04;;;;;;;;;;;;;;;0.71;100.00;100074.50;5091584;28;19908;-80
2024/01/21 02:49:29;;;;;;;;;;;;;;;0.69;100.00;100080.25;5092974;28;20389;-82
2024/01/21 02:51:55;;;;;;;;;;;;;;;0.73;100.00;100074.94;5087935;28;19916;-80
2024/01/21 02:54:21;;;;;;;;;;;;;;;0.73;100.00;100083.88;5085140;28;20291;-79
2024/01/21 02:56:46;;;;;;;;;;;;;;;0.72;100.00;100085.00;5094141;28;19912;-82
2024/01/21 02:59:12;;;;;;;;;;;;;;;0.76;100.00;100093.31;5092643;28;19912;-80
2024/01/21 03:01:37;;;;;;;;;;;;;;;0.75;100.00;100087.06;5092524;28;19912;-79
2024/01/21 03:04:02;;;;;;;;;;;;;;;0.79;100.00;100093.41;5092765;28;19915;-79
2024/01/21 03:06:27;;;;;;;;;;;;;;;0.76;100.00;100085.94;5093638;28;19934;-79
2024/01/21 03:08:53;;;;;;;;;;;;;;;0.78;100.00;100091.06;5101472;28;19915;-79
2024/01/21 03:11:18;;;;;;;;;;;;;;;0.73;100.00;100077.66;5100805;28;20379;-80
2024/01/21 03:13:43;;;;;;;;;;;;;;;0.66;100.00;100083.63;5092270;28;20391;-80
2024/01/21 03:16:10;;;;;;;;;;;;;;;0.66;100.00;100085.59;5087882;28;19935;-80
2024/01/21 03:18:38;;;;;;;;;;;;;;;0.71;100.00;100080.72;5084531;28;19912;-79
2024/01/21 03:21:04;;;;;;;;;;;;;;;0.66;100.00;100074.72;5091863;28;19912;-80
2024/01/21 03:23:29;;;;;;;;;;;;;;;0.66;100.00;100080.91;5092936;28;19915;-80
2024/01/21 03:25:55;;;;;;;;;;;;;;;0.65;100.00;100084.78;5091544;28;19991;-81
2024/01/21 03:28:20;;;;;;;;;;;;;;;0.60;100.00;100082.28;5091721;28;20390;-80
2024/01/21 03:30:45;;;;;;;;;;;;;;;0.59;100.00;100097.03;5092892;28;19923;-80
2024/01/21 03:33:11;;;;;;;;;;;;;;;0.58;100.00;100091.91;5092100;28;19930;-79
2024/01/21 03:35:36;;;;;;;;;;;;;;;0.55;100.00;100098.78;5092089;28;19916;-80
2024/01/21 03:38:02;;;;;;;;;;;;;;;0.49;100.00;100100.13;5091595;28;20004;-80
2024/01/21 03:40:27;;;;;;;;;;;;;;;0.35;100.00;100095.00;5091558;28;20297;-79
2024/01/21 03:42:52;;;;;;;;;;;;;;;0.31;100.00;100096.00;5092161;28;19912;-79
2024/01/21 03:45:18;;;;;;;;;;;;;;;0.34;100.00;100096.13;5091867;28;20448;-80
2024/01/21 03:47:43;;;;;;;;;;;;;;;0.34;100.00;100093.41;5091582;28;19961;-79
2024/01/21 03:50:08;;;;;;;;;;;;;;;0.31;100.00;100099.50;5091646;28;19961;-80
2024/01/21 03:52:34;;;;;;;;;;;;;;;0.14;100.00;100094.22;5092611;28;19954;-80
2024/01/21 03:55:01;;;;;;;;;;;;;;;0.04;100.00;100096.56;5092573;28;19916;-80
2024/01/21 03:57:27;;;;;;;;;;;;;;;-0.01;100.00;100095.66;5091434;28;19924;-79
2024/01/21 03:59:52;;;;;;;;;;;;;;;0.00;100.00;100093.72;5090719;28;19922;-79
2024/01/21 04:02:19;;;;;;;;;;;;;;;0.03;100.00;100100.41;5092857;28;20010;-80
2024/01/21 04:04:45;;;;;;;;;;;;;;;0.00;100.00;100102.66;5091200;28;19915;-81
2024/01/21 04:07:10;;;;;;;;;;;;;;;-0.11;100.00;100104.16;5092531;28;19908;-81
2024/01/21 04:09:35;;;;;;;;;;;;;;;-0.13;100.00;100109.16;5091411;28;19908;-81
2024/01/21 04:12:01;;;;;;;;;;;;;;;-0.16;100.00;100103.56;5091294;28;19911;-79
2024/01/21 04:14:26;;;;;;;;;;;;;;;-0.29;100.00;100107.34;5090997;28;19998;-79
2024/01/21 04:16:51;;;;;;;;;;;;;;;-0.34;100.00;100102.09;5090905;28;19976;-79
2024/01/21 04:19:17;;;;;;;;;;;;;;;-0.31;100.00;100096.81;5092236;28;20395;-82
2024/01/21 04:21:42;;;;;;;;;;;;;;;-0.28;100.00;100104.28;5090833;28;19919;-78
2024/01/21 04:24:08;;;;;;;;;;;;;;;-0.22;100.00;100102.97;5090598;28;20027;-80
2024/01/21 04:26:33;;;;;;;;;;;;;;;-0.21;100.00;100101.06;5091029;28;19915;-79
2024/01/21 04:28:59;;;;;;;;;;;;;;;-0.16;100.00;100098.16;5090809;28;19952;-79
2024/01/21 04:31:24;;;;;;;;;;;;;;;-0.14;100.00;100101.34;5090684;28;20457;-79
2024/01/21 04:33:49;;;;;;;;;;;;;;;-0.16;100.00;100104.38;5090788;28;19946;-79
2024/01/21 04:36:15;;;;;;;;;;;;;;;-0.25;100.00;100105.56;5090923;28;19943;-80
2024/01/21 04:38:40;;;;;;;;;;;;;;;-0.22;100.00;100102.97;5091660;28;19999;-79
2024/01/21 04:41:06;;;;;;;;;;;;;;;-0.24;100.00;100102.50;5092353;28;19919;-80
2024/01/21 04:43:31;;;;;;;;;;;;;;;-0.26;100.00;100104.78;5091045;28;19908;-79
2024/01/21 04:45:56;;;;;;;;;;;;;;;-0.30;100.00;100109.25;5090871;28;19912;-80
2024/01/21 04:48:22;;;;;;;;;;;;;;;-0.39;100.00;100111.25;5090960;28;20002;-79
2024/01/21 04:50:47;;;;;;;;;;;;;;;-0.45;100.00;100107.13;5090464;28;19916;-80
2024/01/21 04:53:12;;;;;;;;;;;;;;;-0.53;100.00;100116.09;5092047;28;19972;-79
2024/01/21 04:55:37;;;;;;;;;;;;;;;-0.53;100.00;100113.38;5090539;28;20652;-79
2024/01/21 04:58:03;;;;;;;;;;;;;;;-0.56;100.00;100105.91;5090992;28;20384;-79
2024/01/21 05:00:28;;;;;;;;;;;;;;;-0.53;100.00;100110.66;5092249;28;19915;-79
2024/01/21 05:02:53;;;;;;;;;;;;;;;-0.56;100.00;100114.06;5091652;28;19919;-79
2024/01/21 05:05:19;;;;;;;;;;;;;;;-0.66;100.00;100114.44;5092367;28;19961;-79
2024/01/21 05:07:44;;;;;;;;;;;;;;;-0.78;100.00;100114.34;5090460;28;20431;-79
2024/01/21 05:10:09;;;;;;;;;;;;;;;-0.89;100.00;100120.09;5091257;28;19908;-78
2024/01/21 05:12:36;;;;;;;;;;;;;;;-0.91;100.00;100121.56;5094931;28;20023;-78
2024/01/21 05:15:01;;;;;;;;;;;;;;;-1.02;100.00;100129.25;5098861;28;19912;-79
2024/01/21 05:17:27;;;;;;;;;;;;;;;-1.10;100.00;100126.56;5094583;28;20019;-78
2024/01/21 05:19:52;;;;;;;;;;;;;;;-1.22;100.00;100129.97;5094461;28;19912;-79
2024/01/21 05:22:17;;;;;;;;;;;;;;;-1.32;100.00;100136.50;5094405;28;19920;-78
2024/01/21 05:24:43;;;;;;;;;;;;;;;-1.40;100.00;100136.53;5094538;28;19916;-77
2024/01/21 05:27:08;;;;;;;;;;;;;;;-1.63;100.00;100144.84;5094562;28;20303;-78
2024/01/21 05:29:33;;;;;;;;;;;;;;;-1.69;100.00;100148.06;5095857;28;20002;-79
2024/01/21 05:31:59;;;;;;;;;;;;;;;-1.71;100.00;100144.84;5094135;28;20007;-78
2024/01/21 05:34:24;;;;;;;;;;;;;;;-1.78;100.00;100141.81;5094322;28;19911;-79
2024/01/21 05:36:49;;;;;;;;;;;;;;;-1.64;100.00;100142.47;5094183;28;19919;-78
2024/01/21 05:39:14;;;;;;;;;;;;;;;-1.46;100.00;100145.94;5095257;28;19974;-78
2024/01/21 05:41:40;;;;;;;;;;;;;;;-1.33;100.00;100151.19;5094106;28;19916;-78
2024/01/21 05:44:05;;;;;;;;;;;;;;;-1.22;100.00;100151.66;5094191;28;19998;-78
2024/01/21 05:46:30;;;;;;;;;;;;;;;-1.13;100.00;100159.75;5095179;28;19918;-77
2024/01/21 05:48:56;;;;;;;;;;;;;;;-1.07;100.00;100161.97;5093761;28;19986;-81
2024/01/21 05:51:21;;;;;;;;;;;;;;;-1.02;100.00;100164.50;5093868;28;20419;-78
2024/01/21 05:53:46;;;;;;;;;;;;;;;-0.94;100.00;100160.97;5093737;28;19938;-78
2024/01/21 05:56:12;;;;;;;;;;;;;;;-0.96;100.00;100163.22;5093654;28;19924;-78
2024/01/21 05:58:37;;;;;;;;;;;;;;;-1.00;100.00;100165.00;5095005;28;19916;-78
2024/01/21 06:01:02;;;;;;;;;;;;;;;-0.94;100.00;100166.41;5094788;28;19912;-78
2024/01/21 06:03:28;;;;;;;;;;;;;;;-0.94;100.00;100177.25;5094657;28;19923;-78
2024/01/21 06:05:53;;;;;;;;;;;;;;;-1.00;100.00;100173.13;5093269;28;19912;-78
2024/01/21 06:08:18;;;;;;;;;;;;;;;-1.08;100.00;100176.66;5094713;28;20448;-78
2024/01/21 06:10:44;;;;;;;;;;;;;;;-1.05;100.00;100180.63;5093354;28;19919;-78
2024/01/21 06:13:09;;;;;;;;;;;;;;;-1.13;100.00;100176.03;5093465;28;19934;-78
2024/01/21 06:15:34;;;;;;;;;;;;;;;-1.14;100.00;100171.72;5093144;28;20405;-78
2024/01/21 06:17:59;;;;;;;;;;;;;;;-1.17;100.00;100181.31;5080464;28;20045;-80
2024/01/21 06:20:25;;;;;;;;;;;;;;;-1.15;100.00;100176.38;5094373;28;19912;-77
2024/01/21 06:22:50;;;;;;;;;;;;;;;-1.15;100.00;100189.94;5093411;28;19916;-78
2024/01/21 06:25:17;;;;;;;;;;;;;;;-1.20;100.00;100187.34;5079495;28;20368;-78
2024/01/21 06:27:42;;;;;;;;;;;;;;;-1.18;100.00;100195.97;5093182;28;19912;-79
2024/01/21 06:30:14;;;;;;;;;;;;;;;-1.28;100.00;100196.31;5093304;28;20487;-77
2024/01/21 06:32:40;;;;;;;;;;;;;;;-1.29;100.00;100200.16;5092929;28;19930;-80
2024/01/21 06:35:05;;;;;;;;;;;;;;;-1.31;100.00;100208.59;5092943;28;20327;-79
2024/01/21 06:37:31;;;;;;;;;;;;;;;-1.24;100.00;100213.53;5094002;28;19915;-78
2024/01/21 06:39:56;;;;;;;;;;;;;;;-1.24;100.00;100210.81;5092487;28;20402;-78
2024/01/21 06:42:21;;;;;;;;;;;;;;;-1.28;100.00;100218.00;5094429;28;19912;-79
2024/01/21 06:44:47;;;;;;;;;;;;;;;-1.26;100.00;100223.88;5079411;28;20008;-78
2024/01/21 06:47:12;;;;;;;;;;;;;;;-1.40;100.00;100226.00;5092925;28;19995;-77
2024/01/21 06:49:37;;;;;;;;;;;;;;;-1.68;100.00;100217.34;5092640;28;19919;-77
2024/01/21 06:52:04;;;;;;;;;;;;;;;-1.59;100.00;100230.91;5092676;28;20363;-77
2024/01/21 06:54:29;;;;;;;;;;;;;;;-1.48;100.00;100232.19;5093560;28;19919;-78
2024/01/21 06:56:55;;;;;;;;;;;;;;;-1.48;100.00;100238.41;5092418;28;19919;-77
2024/01/21 06:59:20;;;;;;;;;;;;;;;-1.48;100.00;100243.03;5092306;28;19911;-79
2024/01/21 07:01:45;;;;;;;;;;;;;;;-1.46;100.00;100246.25;5092021;28;19915;-78
2024/01/21 07:04:12;;;;;;;;;;;;;;;-1.39;100.00;100250.06;5092172;28;20003;-79
2024/01/21 07:06:39;;;;;;;;;;;;;;;-1.37;100.00;100249.72;5093404;28;19908;-79
2024/01/21 07:09:04;;;;;;;;;;;;;;;-1.33;100.00;100245.28;5092474;28;20498;-80
2024/01/21 07:11:35;;;;;;;;;;;;;;;-1.33;100.00;100245.28;5093334;28;20002;-78
2024/01/21 07:14:00;;;;;;;;;;;;;;;-1.35;100.00;100252.94;5092407;28;20004;-78
2024/01/21 07:16:25;;;;;;;;;;;;;;;-1.41;100.00;100262.34;5093446;28;19954;-77
2024/01/21 07:18:51;;;;;;;;;;;;;;;-1.49;100.00;100257.69;5094157;28;20323;-77
2024/01/21 07:21:16;;;;;;;;;;;;;;;-1.42;100.00;100255.31;5093506;28;19930;-77
2024/01/21 07:23:41;;;;;;;;;;;;;;;-1.18;100.00;100252.91;5091168;28;20364;-77
2024/01/21 07:26:07;;;;;;;;;;;;;;;-1.08;100.00;100249.88;5091483;28;19919;-78
2024/01/21 07:28:32;;;;;;;;;;;;;;;-0.97;100.00;100253.88;5091359;28;19931;-80
2024/01/21 07:30:58;;;;;;;;;;;;;;;-0.75;100.00;100261.00;5091876;28;19922;-78
2024/01/21 07:33:23;;;;;;;;;;;;;;;-0.62;100.00;100264.63;5091166;28;19918;-78
2024/01/21 07:35:50;;;;;;;;;;;;;;;-0.56;100.00;100261.44;5091658;28;19915;-80
2024/01/21 07:38:15;;;;;;;;;;;;;;;-0.43;100.00;100273.22;5092096;28;20007;-81
2024/01/21 07:40:41;;;;;;;;;;;;;;;-0.30;99.42;100263.25;5091409;28;20443;-78
2024/01/21 07:43:07;;;;;;;;;;;;;;;-0.23;98.29;100260.81;5091531;28;20422;-81
2024/01/21 07:45:32;;;;;;;;;;;;;;;-0.19;98.36;100264.50;5091965;28;19961;-82
2024/01/21 07:47:58;;;;;;;;;;;;;;;-0.16;98.33;100272.78;5091752;28;19916;-79
2024/01/21 07:50:23;;;;;;;;;;;;;;;-0.09;98.28;100270.34;5077838;28;20361;-80
2024/01/21 07:52:48;;;;;;;;;;;;;;;0.09;97.73;100278.41;5091550;28;19976;-80
2024/01/21 07:55:14;;;;;;;;;;;;;;;0.18;97.44;100277.22;5090655;28;19916;-80
2024/01/21 07:57:39;;;;;;;;;;;;;;;0.11;97.48;100263.38;5089724;28;19916;-80
2024/01/21 08:00:05;;;;;;;;;;;;;;;0.19;97.17;100267.16;5089855;28;19911;-82
2024/01/21 08:02:30;;;;;;;;;;;;;;;0.26;97.16;100273.66;5090264;28;20207;-80
2024/01/21 08:04:55;;;;;;;;;;;;;;;0.28;97.40;100276.06;5090890;28;19916;-80
2024/01/21 08:07:21;;;;;;;;;;;;;;;0.46;96.79;100277.53;5090390;28;20414;-80
2024/01/21 08:09:46;;;;;;;;;;;;;;;0.56;97.25;100281.78;5084380;28;20013;-80
2024/01/21 08:12:12;;;;;;;;;;;;;;;0.58;96.88;100277.63;5082610;28;19964;-82
2024/01/21 08:14:37;;;;;;;;;;;;;;;0.70;95.23;100279.59;5091884;28;20437;-79
2024/01/21 08:17:02;;;;;;;;;;;;;;;0.81;95.16;100278.06;5090380;28;19908;-79
2024/01/21 08:19:28;;;;;;;;;;;;;;;0.98;93.81;100285.28;5089712;28;19916;-79
2024/01/21 08:21:53;;;;;;;;;;;;;;;1.02;93.79;100284.31;5090675;28;19908;-80
2024/01/21 08:24:18;;;;;;;;;;;;;;;1.06;92.67;100282.50;5091311;28;19912;-80
2024/01/21 08:26:44;;;;;;;;;;;;;;;1.16;92.62;100275.84;5091766;28;20327;-79
2024/01/21 08:29:09;;;;;;;;;;;;;;;1.23;92.11;100285.06;5090759;28;19908;-80
2024/01/21 08:31:40;;;;;;;;;;;;;;;1.35;92.10;100284.31;5090831;28;19946;-80
2024/01/21 08:34:06;;;;;;;;;;;;;;;1.46;92.08;100284.66;5092003;28;19915;-79
2024/01/21 08:36:32;;;;;;;;;;;;;;;1.33;91.61;100292.00;5091751;28;19916;-80
2024/01/21 08:38:57;;;;;;;;;;;;;;;1.48;92.07;100288.66;5090688;28;20388;-81
2024/01/21 08:41:23;;;;;;;;;;;;;;;1.58;91.20;100296.38;5091627;28;19974;-79
2024/01/21 08:43:48;;;;;;;;;;;;;;;1.80;90.13;100297.13;5090219;28;19912;-78
2024/01/21 08:46:15;;;;;;;;;;;;;;;1.85;88.39;100297.69;5090603;28;19908;-79
2024/01/21 08:48:41;;;;;;;;;;;;;;;1.75;88.80;100305.50;5090145;28;19908;-81
2024/01/21 08:51:06;;;;;;;;;;;;;;;1.73;90.54;100302.31;5090206;28;19914;-79
2024/01/21 08:53:32;;;;;;;;;;;;;;;1.72;91.63;100303.44;5090152;28;19924;-79
2024/01/21 08:55:57;;;;;;;;;;;;;;;1.93;90.56;100306.91;5090179;28;19912;-79
2024/01/21 08:58:22;;;;;;;;;;;;;;;1.91;89.90;100304.50;5090189;28;19961;-79
2024/01/21 09:00:48;;;;;;;;;;;;;;;2.13;88.61;100316.88;5079021;28;19912;-79
2024/01/21 09:03:14;;;;;;;;;;;;;;;2.33;87.70;100310.53;5089093;28;20303;-79
2024/01/21 09:05:40;;;;;;;;;;;;;;;2.34;86.92;100309.41;5090432;28;20311;-79
2024/01/21 09:08:05;;;;;;;;;;;;;;;2.44;87.37;100306.19;5090903;28;19912;-79
2024/01/21 09:10:30;;;;;;;;;;;;;;;2.44;87.56;100300.75;5091836;28;19930;-79
2024/01/21 09:12:56;;;;;;;;;;;;;;;2.49;85.92;100318.81;5091183;28;19907;-79
2024/01/21 09:15:22;;;;;;;;;;;;;;;2.47;85.90;100307.47;5092000;28;19908;-80
2024/01/21 09:17:48;;;;;;;;;;;;;;;2.64;85.44;100306.41;5090257;28;19915;-80
2024/01/21 09:20:14;;;;;;;;;;;;;;;2.66;84.38;100306.84;5093235;28;19915;-80
2024/01/21 09:22:39;;;;;;;;;;;;;;;2.58;85.55;100305.06;5092162;28;19908;-79
2024/01/21 09:25:04;;;;;;;;;;;;;;;2.65;86.68;100305.28;5091426;28;19908;-80
2024/01/21 09:27:30;;;;;;;;;;;;;;;2.80;86.40;100301.81;5089371;28;19908;-79
2024/01/21 09:29:55;;;;;;;;;;;;;;;2.84;85.66;100302.69;5091662;28;19908;-79
2024/01/21 09:32:20;;;;;;;;;;;;;;;2.91;85.72;100296.66;5090667;28;19976;-80
2024/01/21 09:34:45;;;;;;;;;;;;;;;2.94;84.37;100313.16;5090588;28;20375;-79
2024/01/21 09:37:11;;;;;;;;;;;;;;;2.93;85.11;100311.56;5090497;28;19919;-80
2024/01/21 09:39:37;;;;;;;;;;;;;;;3.09;84.60;100308.88;5090718;28;20003;-80
2024/01/21 09:42:05;;;;;;;;;;;;;;;3.12;84.44;100311.72;5090470;28;19908;-80
2024/01/21 09:44:30;;;;;;;;;;;;;;;3.07;83.75;100317.44;5090807;28;20003;-81
2024/01/21 09:46:57;;;;;;;;;;;;;;;3.21;82.93;100317.81;5091971;28;19950;-81
2024/01/21 09:49:22;;;;;;;;;;;;;;;3.02;83.41;100312.19;5090556;28;19930;-80
2024/01/21 09:51:48;;;;;;;;;;;;;;;3.05;84.42;100308.00;5092125;28;19912;-80
2024/01/21 09:54:14;;;;;;;;;;;;;;;3.13;83.17;100299.66;5092126;28;19916;-80
2024/01/21 09:56:40;;;;;;;;;;;;;;;3.26;84.14;100303.91;5093044;28;19961;-80
2024/01/21 09:59:07;;;;;;;;;;;;;;;3.12;84.31;100298.09;5094470;28;19916;-81
2024/01/21 10:01:34;;;;;;;;;;;;;;;3.13;84.23;100293.41;5094142;28;19942;-80
2024/01/21 10:03:59;;;;;;;;;;;;;;;3.19;83.09;100303.75;5082311;28;19908;-81
2024/01/21 10:06:25;;;;;;;;;;;;;;;3.17;83.97;100302.50;5094804;28;19908;-80
2024/01/21 10:08:50;;;;;;;;;;;;;;;3.08;83.45;100297.16;5095542;28;19912;-80
2024/01/21 10:11:16;;;;;;;;;;;;;;;3.18;81.50;100301.34;5089049;28;19909;-80
2024/01/21 10:13:42;;;;;;;;;;;;;;;3.25;81.68;100309.75;5086481;28;19947;-80
2024/01/21 10:16:08;;;;;;;;;;;;;;;3.30;81.19;100303.25;5094126;28;20341;-80
2024/01/21 10:18:34;;;;;;;;;;;;;;;3.34;80.63;100298.66;5083725;28;19919;-80
2024/01/21 10:21:02;;;;;;;;;;;;;;;3.26;79.88;100300.38;5094204;28;19965;-81
2024/01/21 10:23:27;;;;;;;;;;;;;;;3.22;79.55;100299.50;5095437;28;20299;-80
2024/01/21 10:25:53;;;;;;;;;;;;;;;3.26;79.83;100298.44;5094300;28;19912;-81
2024/01/21 10:28:18;;;;;;;;;;;;;;;3.31;80.05;100302.91;5093819;28;19965;-80
2024/01/21 10:30:44;;;;;;;;;;;;;;;3.30;81.03;100298.56;5093578;28;19924;-80
2024/01/21 10:33:10;;;;;;;;;;;;;;;3.38;82.70;100288.59;5094960;28;20367;-82
2024/01/21 10:35:35;;;;;;;;;;;;;;;3.44;82.39;100285.28;5093548;28;19908;-80
2024/01/21 10:38:05;;;;;;;;;;;;;;;3.45;81.25;100288.81;5095044;28;19950;-82
2024/01/21 10:40:30;;;;;;;;;;;;;;;3.46;81.21;100291.19;5093062;28;19912;-80
2024/01/21 10:42:59;;;;;;;;;;;;;;;3.54;80.56;100292.97;5082041;28;19915;-80
2024/01/21 10:45:29;;;;;;;;;;;;;;;3.55;79.00;100288.31;5093385;28;20712;-80
2024/01/21 10:47:55;;;;;;;;;;;;;;;3.54;78.47;100281.25;5093836;28;19912;-80
2024/01/21 10:50:22;;;;;;;;;;;;;;;3.60;78.30;100280.66;5093646;28;20010;-81
2024/01/21 10:52:48;;;;;;;;;;;;;;;3.61;78.67;100275.97;5090352;28;20003;-81
2024/01/21 10:55:13;;;;;;;;;;;;;;;3.62;79.53;100269.34;5092128;28;20395;-83
2024/01/21 10:57:38;;;;;;;;;;;;;;;3.82;80.09;100276.50;5092559;28;19924;-83
2024/01/21 11:00:05;;;;;;;;;;;;;;;4.00;80.05;100269.53;5091505;28;19936;-81
2024/01/21 11:02:31;;;;;;;;;;;;;;;4.23;79.33;100274.34;5093075;28;20462;-82
2024/01/21 11:04:57;;;;;;;;;;;;;;;4.43;78.94;100268.59;5093202;28;19911;-81
2024/01/21 11:07:24;;;;;;;;;;;;;;;4.24;76.76;100265.81;5092439;28;20277;-81
2024/01/21 11:09:49;;;;;;;;;;;;;;;3.97;78.69;100266.72;5092269;28;19916;-82
2024/01/21 11:12:24;;;;;;;;;;;;;;;4.05;79.96;100260.25;5092388;28;20448;-81
2024/01/21 11:14:50;;;;;;;;;;;;;;;4.06;78.74;100268.13;5072932;28;20342;-82
2024/01/21 11:17:19;;;;;;;;;;;;;;;4.15;78.99;100267.94;5083218;28;19908;-82
2024/01/21 11:19:52;;;;;;;;;;;;;;;4.24;77.56;100259.53;5089469;28;20372;-81
2024/01/21 11:22:20;;;;;;;;;;;;;;;4.29;77.54;100267.47;5092157;28;19920;-81
2024/01/21 11:24:45;;;;;;;;;;;;;;;4.35;76.97;100263.31;5092222;28;20003;-80
2024/01/21 11:27:18;;;;;;;;;;;;;;;4.46;75.04;100267.09;5092518;28;19944;-80
2024/01/21 11:29:44;;;;;;;;;;;;;;;4.53;74.77;100258.22;5093372;28;19920;-79
2024/01/21 11:32:10;;;;;;;;;;;;;;;4.54;73.71;100251.59;5092172;28;19918;-80
2024/01/21 11:34:39;;;;;;;;;;;;;;;4.42;72.94;100252.53;5092052;28;19916;-79
2024/01/21 11:37:08;;;;;;;;;;;;;;;4.48;73.40;100248.34;5092198;28;19912;-80
2024/01/21 11:39:34;;;;;;;;;;;;;;;4.53;73.89;100242.59;5091951;28;19919;-80
2024/01/21 11:42:00;;;;;;;;;;;;;;;4.57;74.86;100238.00;5092343;28;19912;-80
2024/01/21 11:44:28;;;;;;;;;;;;;;;4.56;75.30;100238.38;5091870;28;19990;-79
2024/01/21 11:46:54;;;;;;;;;;;;;;;4.56;76.02;100238.38;5091709;28;20012;-80
2024/01/21 11:49:20;;;;;;;;;;;;;;;4.55;76.35;100237.56;5093074;28;19926;-80
2024/01/21 11:51:45;;;;;;;;;;;;;;;4.55;77.26;100239.50;5091541;28;20311;-80
2024/01/21 11:54:12;;;;;;;;;;;;;;;4.51;77.60;100236.72;5091302;28;19955;-80
2024/01/21 11:56:37;;;;;;;;;;;;;;;4.46;77.50;100228.78;5091343;28;19965;-80
2024/01/21 11:59:06;;;;;;;;;;;;;;;4.38;77.68;100240.72;5091864;28;19912;-80
2024/01/21 12:01:33;;;;;;;;;;;;;;;4.35;78.74;100228.53;5091988;28;19908;-80
2024/01/21 12:04:00;;;;;;;;;;;;;;;4.28;78.83;100233.06;5091537;28;19916;-81
2024/01/21 12:06:25;;;;;;;;;;;;;;;4.30;78.32;100231.53;5091479;28;19912;-80
2024/01/21 12:08:51;;;;;;;;;;;;;;;4.30;79.17;100231.53;5074689;28;19965;-80
2024/01/21 12:11:16;;;;;;;;;;;;;;;4.25;79.26;100229.09;5091754;28;19912;-80
2024/01/21 12:13:43;;;;;;;;;;;;;;;4.21;79.30;100232.91;5091534;28;19912;-79
2024/01/21 12:16:09;;;;;;;;;;;;;;;4.18;78.67;100228.13;5074692;28;19916;-79
2024/01/21 12:18:41;;;;;;;;;;;;;;;4.12;79.01;100229.56;5091275;28;19923;-80
2024/01/21 12:21:07;;;;;;;;;;;;;;;4.16;78.79;100230.44;5091163;28;19912;-80
2024/01/21 12:23:32;;;;;;;;;;;;;;;4.15;79.46;100234.31;5091323;28;19908;-80
2024/01/21 12:25:57;;;;;;;;;;;;;;;4.14;79.33;100233.53;5091251;28;19918;-79
2024/01/21 12:28:23;;;;;;;;;;;;;;;4.15;79.31;100223.38;5091064;28;19907;-80
2024/01/21 12:30:48;;;;;;;;;;;;;;;4.08;79.35;100227.53;5091072;28;19919;-80